Aviation Digital Data Service (ADDS)

Output produced by METARs form (1152 UTC 05 March 2015)
found at http://aviationweather.gov/adds/metars/
 
KSSI 051121Z 0512/0612 23004KT P6SM SCT004 BKN040 
     TEMPO 0512/0514 BKN004 
     FM051400 21007KT P6SM SCT250 
     FM051700 20012G20KT P6SM SCT040 SCT250 
     FM052200 23010KT P6SM BKN040 
     FM060100 28008KT P6SM VCSH BKN025 
     FM060800 36012KT P6SM OVC015